createdAt,value
2022-12-09T00:04:20.298Z,-0.65
2022-12-09T00:09:22.024Z,-0.68
2022-12-09T00:14:24.111Z,-0.70
2022-12-09T00:19:25.656Z,-0.75
2022-12-09T00:24:27.166Z,-0.78
2022-12-09T00:29:28.634Z,-0.82
2022-12-09T00:34:30.431Z,-0.82
2022-12-09T00:39:31.978Z,-0.80
2022-12-09T00:44:33.683Z,-0.80
2022-12-09T00:49:35.160Z,-0.79
2022-12-09T00:54:36.705Z,-0.78
2022-12-09T00:59:38.420Z,-0.79
2022-12-09T01:04:39.943Z,-0.75
2022-12-09T01:09:41.404Z,-0.75
2022-12-09T01:14:42.975Z,-0.84
2022-12-09T01:19:45.613Z,-0.93
2022-12-09T01:24:47.985Z,-1.02
2022-12-09T01:29:49.515Z,-1.09
2022-12-09T01:34:51.231Z,-1.21
2022-12-09T01:39:52.718Z,-1.32
2022-12-09T01:45:23.564Z,-1.41
2022-12-09T01:50:27.240Z,-1.45
2022-12-09T01:55:29.482Z,-1.35
2022-12-09T02:00:31.237Z,-1.22
2022-12-09T02:05:33.343Z,-1.16
2022-12-09T02:10:40.472Z,-1.16
2022-12-09T02:15:48.017Z,-1.23
2022-12-09T02:20:57.571Z,-1.24
2022-12-09T02:26:32.716Z,-1.02
2022-12-09T02:31:40.210Z,-1.07
2022-12-09T02:37:08.121Z,-1.23
2022-12-09T02:42:13.444Z,-1.34
2022-12-09T02:47:18.999Z,-1.47
2022-12-09T02:52:23.050Z,-1.55
2022-12-09T02:57:28.180Z,-1.63
2022-12-09T03:02:35.349Z,-1.67
2022-12-09T03:08:17.559Z,-1.72
2022-12-09T03:13:48.636Z,-1.80
2022-12-09T03:18:56.977Z,-1.84
2022-12-09T03:24:00.458Z,-1.86
2022-12-09T03:29:06.017Z,-1.86
2022-12-09T03:34:11.480Z,-1.84
2022-12-09T03:39:17.253Z,-1.81
2022-12-09T03:44:39.181Z,-1.77
2022-12-09T03:49:41.166Z,-1.74
2022-12-09T03:54:47.916Z,-1.72
2022-12-09T03:59:56.644Z,-1.71
2022-12-09T04:04:58.194Z,-1.65
2022-12-09T04:09:59.693Z,-1.56
2022-12-09T04:15:01.189Z,-1.53
2022-12-09T04:20:02.766Z,-1.53
2022-12-09T04:25:04.633Z,-1.55
2022-12-09T04:30:08.523Z,-1.49
2022-12-09T04:35:10.637Z,-1.42
2022-12-09T04:40:18.058Z,-1.35
2022-12-09T04:45:22.859Z,-1.28
2022-12-09T04:50:24.615Z,-1.27
2022-12-09T04:55:26.215Z,-1.25
2022-12-09T05:00:28.041Z,-1.15
2022-12-09T05:05:29.947Z,-1.00
2022-12-09T05:10:31.663Z,-0.87
2022-12-09T05:15:33.580Z,-0.75
2022-12-09T05:20:38.949Z,-0.77
2022-12-09T05:25:40.582Z,-0.79
2022-12-09T05:30:42.322Z,-0.80
2022-12-09T05:35:52.381Z,-0.78
2022-12-09T05:40:55.027Z,-0.66
2022-12-09T05:45:56.957Z,-0.55
2022-12-09T05:51:00.634Z,-0.52
2022-12-09T05:56:03.002Z,-0.56
2022-12-09T06:01:08.805Z,-0.64
2022-12-09T06:06:15.814Z,-0.65
2022-12-09T06:11:21.179Z,-0.55
2022-12-09T06:16:23.605Z,-0.44
2022-12-09T06:21:26.049Z,-0.39
2022-12-09T06:26:29.859Z,-0.34
2022-12-09T06:31:31.752Z,-0.28
2022-12-09T06:36:33.935Z,-0.22
2022-12-09T06:41:35.833Z,-0.19
2022-12-09T06:46:37.660Z,-0.17
2022-12-09T06:51:39.293Z,-0.16
2022-12-09T06:56:41.202Z,-0.11
2022-12-09T07:01:43.081Z,-0.08
2022-12-09T07:06:46.078Z,-0.05
2022-12-09T07:11:48.815Z,-0.11
2022-12-09T07:16:50.655Z,-0.10
2022-12-09T07:21:52.423Z,-0.02
2022-12-09T07:26:54.455Z,0.11
2022-12-09T07:31:56.362Z,0.16
2022-12-09T07:36:58.074Z,0.19
2022-12-09T07:41:59.668Z,0.25
2022-12-09T07:47:01.274Z,0.25
2022-12-09T07:52:03.265Z,0.30
2022-12-09T07:57:05.028Z,0.36
2022-12-09T08:02:06.983Z,0.42
2022-12-09T08:07:09.185Z,0.59
2022-12-09T08:12:12.774Z,0.70
2022-12-09T08:17:14.952Z,0.88
2022-12-09T08:22:17.233Z,1.03
2022-12-09T08:27:19.199Z,1.56
2022-12-09T08:32:21.041Z,2.09
2022-12-09T08:37:22.959Z,2.44
2022-12-09T08:42:24.878Z,3.06
2022-12-09T08:47:27.801Z,3.92
2022-12-09T08:52:29.969Z,4.70
2022-12-09T08:57:32.545Z,5.32
2022-12-09T09:02:34.427Z,5.95
2022-12-09T09:07:37.249Z,6.46
2022-12-09T09:12:43.187Z,5.94
2022-12-09T09:17:51.318Z,4.78
2022-12-09T09:22:58.082Z,4.20
2022-12-09T09:28:04.374Z,3.82
2022-12-09T09:33:05.961Z,3.62
2022-12-09T09:38:07.628Z,3.55
2022-12-09T09:43:16.337Z,3.65
2022-12-09T09:48:22.386Z,3.82
2022-12-09T09:53:32.978Z,4.04
2022-12-09T09:58:48.803Z,4.34
2022-12-09T10:04:05.763Z,4.36
2022-12-09T10:09:34.286Z,4.35
2022-12-09T10:14:42.152Z,4.54
2022-12-09T10:19:56.077Z,4.58
2022-12-09T10:24:59.983Z,4.60
2022-12-09T10:30:05.897Z,4.63
2022-12-09T10:35:15.346Z,4.68
2022-12-09T10:40:34.289Z,4.54
2022-12-09T10:51:13.381Z,4.23
2022-12-09T10:56:28.310Z,4.23
2022-12-09T11:01:30.487Z,4.20
2022-12-09T11:06:39.917Z,4.24
2022-12-09T11:11:50.448Z,4.36
2022-12-09T11:16:53.597Z,4.26
2022-12-09T11:22:39.631Z,4.26
2022-12-09T11:28:16.530Z,4.29
2022-12-09T11:33:22.860Z,4.23
2022-12-09T11:38:30.348Z,3.88
2022-12-09T11:43:40.756Z,3.78
2022-12-09T11:48:49.668Z,3.61
2022-12-09T11:54:00.184Z,3.66
2022-12-09T11:59:13.359Z,3.76
2022-12-09T12:04:18.380Z,3.84
2022-12-09T12:09:27.127Z,3.76
2022-12-09T12:14:30.522Z,3.61
2022-12-09T12:19:37.147Z,3.56
2022-12-09T12:24:59.079Z,3.50
2022-12-09T12:30:08.678Z,3.42
2022-12-09T12:35:45.493Z,3.41
2022-12-09T12:40:46.905Z,3.52
2022-12-09T12:46:16.345Z,3.44
2022-12-09T12:51:28.892Z,3.52
2022-12-09T12:56:46.941Z,3.56
2022-12-09T13:01:57.522Z,3.49
2022-12-09T13:07:09.750Z,3.56
2022-12-09T13:12:43.664Z,3.75
2022-12-09T13:17:48.192Z,3.77
2022-12-09T13:23:14.867Z,3.78
2022-12-09T13:28:28.475Z,3.67
2022-12-09T13:33:56.828Z,3.46
2022-12-09T13:38:58.316Z,3.42
2022-12-09T13:44:08.972Z,3.44
2022-12-09T13:49:23.823Z,3.46
2022-12-09T13:54:28.668Z,3.47
2022-12-09T13:59:40.561Z,3.46
2022-12-09T14:04:59.003Z,3.48
2022-12-09T14:10:01.083Z,3.45
2022-12-09T14:15:25.420Z,3.44
2022-12-09T14:20:29.953Z,3.37
2022-12-09T14:25:34.442Z,3.35
2022-12-09T14:30:54.769Z,3.29
2022-12-09T14:36:03.316Z,3.31
2022-12-09T14:41:33.587Z,3.21
2022-12-09T14:46:37.597Z,3.18
2022-12-09T14:51:46.439Z,3.20
2022-12-09T14:56:51.803Z,3.25
2022-12-09T15:02:02.341Z,3.25
2022-12-09T15:07:17.651Z,3.24
2022-12-09T15:12:23.177Z,3.27
2022-12-09T15:17:34.864Z,3.29
2022-12-09T15:22:36.403Z,3.29
2022-12-09T15:27:37.860Z,3.28
2022-12-09T15:32:39.474Z,3.26
2022-12-09T15:37:41.463Z,3.26
2022-12-09T15:42:45.624Z,3.29
2022-12-09T15:47:56.851Z,3.34
2022-12-09T15:53:20.006Z,3.39
2022-12-09T15:58:34.199Z,3.39
2022-12-09T16:03:36.518Z,3.31
2022-12-09T16:08:43.974Z,3.28
2022-12-09T16:13:59.081Z,3.26
2022-12-09T16:19:00.516Z,3.27
2022-12-09T16:24:11.664Z,3.35
2022-12-09T16:29:26.458Z,3.36
2022-12-09T16:34:28.304Z,3.39
2022-12-09T16:39:34.686Z,3.45
2022-12-09T16:44:38.275Z,3.53
2022-12-09T16:49:41.388Z,3.58
2022-12-09T16:54:44.978Z,3.55
2022-12-09T16:59:46.623Z,3.47
2022-12-09T17:04:49.054Z,3.40
2022-12-09T17:09:50.470Z,3.38
2022-12-09T17:14:52.532Z,3.38
2022-12-09T17:19:54.052Z,3.36
2022-12-09T17:24:55.539Z,3.34
2022-12-09T17:29:57.033Z,3.35
2022-12-09T17:34:58.523Z,3.31
2022-12-09T17:40:03.403Z,3.29
2022-12-09T17:45:06.649Z,3.33
2022-12-09T17:50:08.770Z,3.37
2022-12-09T17:55:10.462Z,3.39
2022-12-09T18:00:12.503Z,3.38
2022-12-09T18:05:13.941Z,3.38
2022-12-09T18:10:15.471Z,3.37
2022-12-09T18:15:17.077Z,3.36
2022-12-09T18:20:18.881Z,3.38
2022-12-09T18:25:20.474Z,3.37
2022-12-09T18:30:21.990Z,3.36
2022-12-09T18:35:23.406Z,3.38
2022-12-09T18:40:25.872Z,3.40
2022-12-09T18:45:27.389Z,3.38
2022-12-09T18:50:29.101Z,3.38
2022-12-09T18:55:30.575Z,3.40
2022-12-09T19:00:34.949Z,3.44
2022-12-09T19:05:41.348Z,3.44
2022-12-09T19:10:42.840Z,3.45
2022-12-09T19:15:44.538Z,3.43
2022-12-09T19:20:48.164Z,3.42
2022-12-09T19:25:49.633Z,3.44
2022-12-09T19:30:51.192Z,3.51
2022-12-09T19:35:52.738Z,3.53
2022-12-09T19:40:54.146Z,3.54
2022-12-09T19:45:55.723Z,3.59
2022-12-09T19:50:57.268Z,3.58
2022-12-09T19:56:03.477Z,3.56
2022-12-09T20:01:10.370Z,3.51
2022-12-09T20:06:13.840Z,3.50
2022-12-09T20:11:18.018Z,3.50
2022-12-09T20:16:22.626Z,3.48
2022-12-09T20:21:25.093Z,3.48
2022-12-09T20:26:28.850Z,3.48
2022-12-09T20:31:31.934Z,3.49
2022-12-09T20:36:35.045Z,3.49
2022-12-09T20:41:36.607Z,3.46
2022-12-09T20:46:39.554Z,3.45
2022-12-09T20:51:41.410Z,3.48
2022-12-09T20:56:42.880Z,3.51
2022-12-09T21:01:47.345Z,3.55
2022-12-09T21:06:49.302Z,3.52
2022-12-09T21:11:51.119Z,3.50
2022-12-09T21:16:53.183Z,3.48
2022-12-09T21:21:57.605Z,3.48
2022-12-09T21:26:59.140Z,3.49
2022-12-09T21:32:06.383Z,3.52
2022-12-09T21:37:07.887Z,3.56
2022-12-09T21:42:09.608Z,3.56
2022-12-09T21:47:11.142Z,3.57
2022-12-09T21:52:12.564Z,3.59
2022-12-09T21:57:14.558Z,3.58
2022-12-09T22:02:15.989Z,3.59
2022-12-09T22:07:17.479Z,3.60
2022-12-09T22:12:19.271Z,3.57
2022-12-09T22:17:20.700Z,3.56
2022-12-09T22:22:22.425Z,3.60
2022-12-09T22:27:23.926Z,3.61
2022-12-09T22:32:25.626Z,3.59
2022-12-09T22:37:43.840Z,3.58
2022-12-09T22:42:45.662Z,3.52
2022-12-09T22:47:47.094Z,3.45
2022-12-09T22:52:48.687Z,3.44
2022-12-09T22:57:50.205Z,3.46
2022-12-09T23:02:51.849Z,3.44
2022-12-09T23:07:53.391Z,3.45
2022-12-09T23:12:54.854Z,3.41
2022-12-09T23:17:56.292Z,3.43
2022-12-09T23:22:57.809Z,3.42
2022-12-09T23:27:59.285Z,3.45
2022-12-09T23:33:00.708Z,3.45
2022-12-09T23:38:02.141Z,3.45
2022-12-09T23:43:03.752Z,3.46
2022-12-09T23:48:05.436Z,3.40
2022-12-09T23:53:06.876Z,3.41
2022-12-09T23:58:08.992Z,3.38
